sensor_id;sensor_type;location;lat;lon;timestamp;P1;durP1;ratioP1;P2;durP2;ratioP2
10517;SDS011;5307;42.548;22.968;2022-08-01T00:02:18;11.63;;;8.18;;
10517;SDS011;5307;42.548;22.968;2022-08-01T00:04:44;9.70;;;8.18;;
10517;SDS011;5307;42.548;22.968;2022-08-01T00:07:11;9.40;;;8.25;;
10517;SDS011;5307;42.548;22.968;2022-08-01T00:09:38;10.88;;;9.15;;
10517;SDS011;5307;42.548;22.968;2022-08-01T00:12:06;11.07;;;8.88;;
10517;SDS011;5307;42.548;22.968;2022-08-01T00:14:33;9.27;;;8.18;;
10517;SDS011;5307;42.548;22.968;2022-08-01T00:17:00;9.73;;;8.30;;
10517;SDS011;5307;42.548;22.968;2022-08-01T00:19:27;8.50;;;7.47;;
10517;SDS011;5307;42.548;22.968;2022-08-01T00:21:53;9.18;;;8.27;;
10517;SDS011;5307;42.548;22.968;2022-08-01T00:24:21;12.25;;;7.75;;
10517;SDS011;5307;42.548;22.968;2022-08-01T00:26:47;17.08;;;6.85;;
10517;SDS011;5307;42.548;22.968;2022-08-01T00:29:16;8.57;;;7.03;;
10517;SDS011;5307;42.548;22.968;2022-08-01T00:31:42;8.57;;;6.78;;
10517;SDS011;5307;42.548;22.968;2022-08-01T00:34:09;10.45;;;7.40;;
10517;SDS011;5307;42.548;22.968;2022-08-01T00:36:36;8.00;;;7.20;;
10517;SDS011;5307;42.548;22.968;2022-08-01T00:39:03;11.75;;;8.43;;
10517;SDS011;5307;42.548;22.968;2022-08-01T00:41:30;8.80;;;7.97;;
10517;SDS011;5307;42.548;22.968;2022-08-01T00:43:57;11.40;;;9.10;;
10517;SDS011;5307;42.548;22.968;2022-08-01T00:46:25;9.38;;;8.45;;
10517;SDS011;5307;42.548;22.968;2022-08-01T00:48:52;10.80;;;9.43;;
10517;SDS011;5307;42.548;22.968;2022-08-01T00:51:20;14.15;;;10.07;;
10517;SDS011;5307;42.548;22.968;2022-08-01T00:53:47;15.70;;;10.02;;
10517;SDS011;5307;42.548;22.968;2022-08-01T00:56:15;12.82;;;9.38;;
10517;SDS011;5307;42.548;22.968;2022-08-01T00:58:42;12.40;;;9.63;;
10517;SDS011;5307;42.548;22.968;2022-08-01T01:01:09;10.77;;;9.07;;
10517;SDS011;5307;42.548;22.968;2022-08-01T01:03:37;14.10;;;9.55;;
10517;SDS011;5307;42.548;22.968;2022-08-01T01:06:06;9.88;;;8.90;;
10517;SDS011;5307;42.548;22.968;2022-08-01T01:08:40;10.80;;;9.70;;
10517;SDS011;5307;42.548;22.968;2022-08-01T01:11:15;9.98;;;8.98;;
10517;SDS011;5307;42.548;22.968;2022-08-01T01:13:49;13.18;;;9.10;;
10517;SDS011;5307;42.548;22.968;2022-08-01T01:16:24;9.18;;;8.10;;
10517;SDS011;5307;42.548;22.968;2022-08-01T01:18:54;9.23;;;8.18;;
10517;SDS011;5307;42.548;22.968;2022-08-01T01:21:29;8.63;;;7.80;;
10517;SDS011;5307;42.548;22.968;2022-08-01T01:24:11;9.07;;;7.20;;
10517;SDS011;5307;42.548;22.968;2022-08-01T01:26:50;7.63;;;6.90;;
10517;SDS011;5307;42.548;22.968;2022-08-01T01:29:25;8.52;;;6.13;;
10517;SDS011;5307;42.548;22.968;2022-08-01T01:31:55;8.85;;;7.03;;
10517;SDS011;5307;42.548;22.968;2022-08-01T01:34:24;7.82;;;7.13;;
10517;SDS011;5307;42.548;22.968;2022-08-01T01:36:56;7.38;;;6.68;;
10517;SDS011;5307;42.548;22.968;2022-08-01T01:39:25;8.77;;;6.65;;
10517;SDS011;5307;42.548;22.968;2022-08-01T01:41:56;11.02;;;10.02;;
10517;SDS011;5307;42.548;22.968;2022-08-01T01:44:25;14.90;;;10.73;;
10517;SDS011;5307;42.548;22.968;2022-08-01T01:46:53;9.95;;;8.95;;
10517;SDS011;5307;42.548;22.968;2022-08-01T01:49:23;14.77;;;10.38;;
10517;SDS011;5307;42.548;22.968;2022-08-01T01:51:52;13.30;;;9.82;;
10517;SDS011;5307;42.548;22.968;2022-08-01T01:54:21;12.48;;;9.63;;
10517;SDS011;5307;42.548;22.968;2022-08-01T01:56:50;10.48;;;9.43;;
10517;SDS011;5307;42.548;22.968;2022-08-01T01:59:19;10.85;;;9.40;;
10517;SDS011;5307;42.548;22.968;2022-08-01T02:01:48;12.50;;;8.70;;
10517;SDS011;5307;42.548;22.968;2022-08-01T02:04:17;12.55;;;8.60;;
10517;SDS011;5307;42.548;22.968;2022-08-01T02:06:46;9.65;;;8.73;;
10517;SDS011;5307;42.548;22.968;2022-08-01T02:09:16;9.07;;;8.27;;
10517;SDS011;5307;42.548;22.968;2022-08-01T02:11:45;8.88;;;8.07;;
10517;SDS011;5307;42.548;22.968;2022-08-01T02:14:14;9.38;;;8.35;;
10517;SDS011;5307;42.548;22.968;2022-08-01T02:16:44;11.98;;;8.65;;
10517;SDS011;5307;42.548;22.968;2022-08-01T02:19:15;10.98;;;7.10;;
10517;SDS011;5307;42.548;22.968;2022-08-01T02:21:44;9.38;;;6.75;;
10517;SDS011;5307;42.548;22.968;2022-08-01T02:24:14;7.75;;;5.90;;
10517;SDS011;5307;42.548;22.968;2022-08-01T02:26:47;10.38;;;6.70;;
10517;SDS011;5307;42.548;22.968;2022-08-01T02:29:19;7.72;;;6.50;;
10517;SDS011;5307;42.548;22.968;2022-08-01T02:31:50;10.40;;;7.32;;
10517;SDS011;5307;42.548;22.968;2022-08-01T02:34:22;9.50;;;7.22;;
10517;SDS011;5307;42.548;22.968;2022-08-01T02:36:51;9.98;;;8.00;;
10517;SDS011;5307;42.548;22.968;2022-08-01T02:39:22;8.07;;;7.38;;
10517;SDS011;5307;42.548;22.968;2022-08-01T02:41:54;10.73;;;7.45;;
10517;SDS011;5307;42.548;22.968;2022-08-01T02:44:28;7.57;;;6.78;;
10517;SDS011;5307;42.548;22.968;2022-08-01T02:46:57;8.15;;;6.38;;
10517;SDS011;5307;42.548;22.968;2022-08-01T02:49:29;9.82;;;6.30;;
10517;SDS011;5307;42.548;22.968;2022-08-01T02:51:58;8.75;;;6.15;;
10517;SDS011;5307;42.548;22.968;2022-08-01T02:54:26;10.98;;;5.45;;
10517;SDS011;5307;42.548;22.968;2022-08-01T02:56:55;5.63;;;4.97;;
10517;SDS011;5307;42.548;22.968;2022-08-01T02:59:23;10.10;;;5.55;;
10517;SDS011;5307;42.548;22.968;2022-08-01T03:01:53;10.80;;;5.85;;
10517;SDS011;5307;42.548;22.968;2022-08-01T03:04:21;6.32;;;5.05;;
10517;SDS011;5307;42.548;22.968;2022-08-01T03:06:51;6.95;;;5.68;;
10517;SDS011;5307;42.548;22.968;2022-08-01T03:09:20;11.77;;;7.53;;
10517;SDS011;5307;42.548;22.968;2022-08-01T03:11:48;16.80;;;9.43;;
10517;SDS011;5307;42.548;22.968;2022-08-01T03:14:15;9.82;;;8.93;;
10517;SDS011;5307;42.548;22.968;2022-08-01T03:16:44;15.60;;;9.20;;
10517;SDS011;5307;42.548;22.968;2022-08-01T03:19:12;10.23;;;9.20;;
10517;SDS011;5307;42.548;22.968;2022-08-01T03:21:42;9.93;;;8.95;;
10517;SDS011;5307;42.548;22.968;2022-08-01T03:24:12;11.82;;;8.63;;
10517;SDS011;5307;42.548;22.968;2022-08-01T03:26:40;9.23;;;8.13;;
10517;SDS011;5307;42.548;22.968;2022-08-01T03:29:10;14.25;;;8.15;;
10517;SDS011;5307;42.548;22.968;2022-08-01T03:31:41;9.95;;;7.95;;
10517;SDS011;5307;42.548;22.968;2022-08-01T03:34:10;8.85;;;7.95;;
10517;SDS011;5307;42.548;22.968;2022-08-01T03:36:39;8.98;;;7.90;;
10517;SDS011;5307;42.548;22.968;2022-08-01T03:39:13;9.23;;;7.68;;
10517;SDS011;5307;42.548;22.968;2022-08-01T03:41:43;18.27;;;7.75;;
10517;SDS011;5307;42.548;22.968;2022-08-01T03:44:15;9.90;;;7.65;;
10517;SDS011;5307;42.548;22.968;2022-08-01T03:46:47;8.20;;;7.35;;
10517;SDS011;5307;42.548;22.968;2022-08-01T03:49:17;8.07;;;7.28;;
10517;SDS011;5307;42.548;22.968;2022-08-01T03:51:46;8.45;;;6.82;;
10517;SDS011;5307;42.548;22.968;2022-08-01T03:54:17;12.93;;;7.07;;
10517;SDS011;5307;42.548;22.968;2022-08-01T03:56:49;8.93;;;7.05;;
10517;SDS011;5307;42.548;22.968;2022-08-01T03:59:18;9.20;;;6.93;;
10517;SDS011;5307;42.548;22.968;2022-08-01T04:01:46;14.15;;;7.47;;
10517;SDS011;5307;42.548;22.968;2022-08-01T04:04:14;8.93;;;8.05;;
10517;SDS011;5307;42.548;22.968;2022-08-01T04:06:41;13.07;;;6.82;;
10517;SDS011;5307;42.548;22.968;2022-08-01T04:09:09;16.95;;;7.55;;
10517;SDS011;5307;42.548;22.968;2022-08-01T04:11:38;12.80;;;7.93;;
10517;SDS011;5307;42.548;22.968;2022-08-01T04:14:06;10.25;;;8.05;;
10517;SDS011;5307;42.548;22.968;2022-08-01T04:16:32;17.83;;;7.38;;
10517;SDS011;5307;42.548;22.968;2022-08-01T04:18:59;15.07;;;7.72;;
10517;SDS011;5307;42.548;22.968;2022-08-01T04:21:27;16.58;;;8.10;;
10517;SDS011;5307;42.548;22.968;2022-08-01T04:23:58;11.05;;;6.85;;
10517;SDS011;5307;42.548;22.968;2022-08-01T04:26:30;22.55;;;7.97;;
10517;SDS011;5307;42.548;22.968;2022-08-01T04:29:00;16.83;;;7.50;;
10517;SDS011;5307;42.548;22.968;2022-08-01T04:31:30;14.98;;;7.80;;
10517;SDS011;5307;42.548;22.968;2022-08-01T04:33:57;13.85;;;8.50;;
10517;SDS011;5307;42.548;22.968;2022-08-01T04:36:25;13.60;;;7.75;;
10517;SDS011;5307;42.548;22.968;2022-08-01T04:38:55;13.75;;;7.40;;
10517;SDS011;5307;42.548;22.968;2022-08-01T04:41:26;17.90;;;8.43;;
10517;SDS011;5307;42.548;22.968;2022-08-01T04:43:53;13.93;;;8.85;;
10517;SDS011;5307;42.548;22.968;2022-08-01T04:46:22;18.42;;;8.32;;
10517;SDS011;5307;42.548;22.968;2022-08-01T04:48:49;17.40;;;8.82;;
10517;SDS011;5307;42.548;22.968;2022-08-01T04:51:17;11.40;;;10.30;;
10517;SDS011;5307;42.548;22.968;2022-08-01T04:53:47;17.90;;;10.82;;
10517;SDS011;5307;42.548;22.968;2022-08-01T04:56:16;13.80;;;11.05;;
10517;SDS011;5307;42.548;22.968;2022-08-01T04:58:43;20.50;;;12.82;;
10517;SDS011;5307;42.548;22.968;2022-08-01T05:01:10;19.30;;;14.10;;
10517;SDS011;5307;42.548;22.968;2022-08-01T05:03:39;22.95;;;15.02;;
10517;SDS011;5307;42.548;22.968;2022-08-01T05:06:06;24.52;;;14.55;;
10517;SDS011;5307;42.548;22.968;2022-08-01T05:08:33;21.33;;;14.63;;
10517;SDS011;5307;42.548;22.968;2022-08-01T05:11:01;21.88;;;16.65;;
10517;SDS011;5307;42.548;22.968;2022-08-01T05:13:28;20.40;;;13.40;;
10517;SDS011;5307;42.548;22.968;2022-08-01T05:15:55;16.15;;;12.65;;
10517;SDS011;5307;42.548;22.968;2022-08-01T05:18:22;18.45;;;12.77;;
10517;SDS011;5307;42.548;22.968;2022-08-01T05:20:50;15.38;;;12.43;;
10517;SDS011;5307;42.548;22.968;2022-08-01T05:23:17;14.90;;;11.75;;
10517;SDS011;5307;42.548;22.968;2022-08-01T05:25:44;16.00;;;11.48;;
10517;SDS011;5307;42.548;22.968;2022-08-01T05:28:10;15.45;;;13.10;;
10517;SDS011;5307;42.548;22.968;2022-08-01T05:30:38;18.33;;;13.93;;
10517;SDS011;5307;42.548;22.968;2022-08-01T05:33:05;16.77;;;11.98;;
10517;SDS011;5307;42.548;22.968;2022-08-01T05:35:32;16.42;;;13.05;;
10517;SDS011;5307;42.548;22.968;2022-08-01T05:38:00;12.93;;;11.13;;
10517;SDS011;5307;42.548;22.968;2022-08-01T05:40:27;12.82;;;11.50;;
10517;SDS011;5307;42.548;22.968;2022-08-01T05:42:54;12.63;;;11.38;;
10517;SDS011;5307;42.548;22.968;2022-08-01T05:45:20;12.55;;;11.15;;
10517;SDS011;5307;42.548;22.968;2022-08-01T05:47:47;12.73;;;11.40;;
10517;SDS011;5307;42.548;22.968;2022-08-01T05:50:14;14.45;;;11.32;;
10517;SDS011;5307;42.548;22.968;2022-08-01T05:52:41;17.77;;;10.88;;
10517;SDS011;5307;42.548;22.968;2022-08-01T05:55:09;18.95;;;11.45;;
10517;SDS011;5307;42.548;22.968;2022-08-01T05:57:36;11.05;;;9.95;;
10517;SDS011;5307;42.548;22.968;2022-08-01T06:00:03;12.60;;;9.77;;
10517;SDS011;5307;42.548;22.968;2022-08-01T06:02:31;10.82;;;9.70;;
10517;SDS011;5307;42.548;22.968;2022-08-01T06:04:58;10.43;;;9.43;;
10517;SDS011;5307;42.548;22.968;2022-08-01T06:07:25;9.35;;;8.45;;
10517;SDS011;5307;42.548;22.968;2022-08-01T06:09:52;10.68;;;8.90;;
10517;SDS011;5307;42.548;22.968;2022-08-01T06:12:21;9.70;;;8.43;;
10517;SDS011;5307;42.548;22.968;2022-08-01T06:14:48;8.60;;;6.93;;
10517;SDS011;5307;42.548;22.968;2022-08-01T06:17:14;6.68;;;5.75;;
10517;SDS011;5307;42.548;22.968;2022-08-01T06:19:41;8.50;;;6.30;;
10517;SDS011;5307;42.548;22.968;2022-08-01T06:22:08;9.43;;;6.75;;
10517;SDS011;5307;42.548;22.968;2022-08-01T06:24:35;6.78;;;6.07;;
10517;SDS011;5307;42.548;22.968;2022-08-01T06:27:02;12.50;;;6.47;;
10517;SDS011;5307;42.548;22.968;2022-08-01T06:29:31;14.93;;;5.50;;
10517;SDS011;5307;42.548;22.968;2022-08-01T06:31:57;9.70;;;5.50;;
10517;SDS011;5307;42.548;22.968;2022-08-01T06:34:24;8.57;;;5.10;;
10517;SDS011;5307;42.548;22.968;2022-08-01T06:36:51;9.85;;;5.57;;
10517;SDS011;5307;42.548;22.968;2022-08-01T06:39:18;7.05;;;5.15;;
10517;SDS011;5307;42.548;22.968;2022-08-01T06:41:45;6.95;;;5.05;;
10517;SDS011;5307;42.548;22.968;2022-08-01T06:44:20;5.15;;;4.63;;
10517;SDS011;5307;42.548;22.968;2022-08-01T06:46:48;6.15;;;4.18;;
10517;SDS011;5307;42.548;22.968;2022-08-01T06:49:15;6.18;;;4.03;;
10517;SDS011;5307;42.548;22.968;2022-08-01T06:51:42;5.78;;;4.00;;
10517;SDS011;5307;42.548;22.968;2022-08-01T06:54:08;8.02;;;4.28;;
10517;SDS011;5307;42.548;22.968;2022-08-01T06:56:35;8.00;;;3.92;;
10517;SDS011;5307;42.548;22.968;2022-08-01T06:59:02;5.45;;;3.67;;
10517;SDS011;5307;42.548;22.968;2022-08-01T07:01:29;8.77;;;3.90;;
10517;SDS011;5307;42.548;22.968;2022-08-01T07:03:57;7.10;;;4.03;;
10517;SDS011;5307;42.548;22.968;2022-08-01T07:06:24;8.45;;;3.67;;
10517;SDS011;5307;42.548;22.968;2022-08-01T07:08:52;6.18;;;3.97;;
10517;SDS011;5307;42.548;22.968;2022-08-01T07:11:20;7.13;;;3.60;;
10517;SDS011;5307;42.548;22.968;2022-08-01T07:13:47;6.65;;;3.90;;
10517;SDS011;5307;42.548;22.968;2022-08-01T07:16:17;6.10;;;3.22;;
10517;SDS011;5307;42.548;22.968;2022-08-01T07:18:44;8.40;;;3.80;;
10517;SDS011;5307;42.548;22.968;2022-08-01T07:21:12;3.83;;;3.42;;
10517;SDS011;5307;42.548;22.968;2022-08-01T07:23:39;3.40;;;3.10;;
10517;SDS011;5307;42.548;22.968;2022-08-01T07:26:06;4.00;;;3.40;;
10517;SDS011;5307;42.548;22.968;2022-08-01T07:28:33;8.75;;;3.45;;
10517;SDS011;5307;42.548;22.968;2022-08-01T07:30:59;4.30;;;2.75;;
10517;SDS011;5307;42.548;22.968;2022-08-01T07:33:26;4.15;;;3.20;;
10517;SDS011;5307;42.548;22.968;2022-08-01T07:35:53;4.35;;;3.25;;
10517;SDS011;5307;42.548;22.968;2022-08-01T07:38:22;6.57;;;3.17;;
10517;SDS011;5307;42.548;22.968;2022-08-01T07:40:48;6.82;;;3.22;;
10517;SDS011;5307;42.548;22.968;2022-08-01T07:43:21;3.80;;;3.30;;
10517;SDS011;5307;42.548;22.968;2022-08-01T07:45:48;6.38;;;2.95;;
10517;SDS011;5307;42.548;22.968;2022-08-01T07:48:15;4.32;;;3.35;;
10517;SDS011;5307;42.548;22.968;2022-08-01T07:50:41;4.60;;;3.13;;
10517;SDS011;5307;42.548;22.968;2022-08-01T07:53:08;3.42;;;3.13;;
10517;SDS011;5307;42.548;22.968;2022-08-01T07:55:37;11.80;;;3.38;;
10517;SDS011;5307;42.548;22.968;2022-08-01T07:58:06;3.70;;;3.33;;
10517;SDS011;5307;42.548;22.968;2022-08-01T08:00:34;3.45;;;3.10;;
10517;SDS011;5307;42.548;22.968;2022-08-01T08:03:01;3.33;;;3.03;;
10517;SDS011;5307;42.548;22.968;2022-08-01T08:05:28;6.20;;;3.30;;
10517;SDS011;5307;42.548;22.968;2022-08-01T08:07:54;7.50;;;3.28;;
10517;SDS011;5307;42.548;22.968;2022-08-01T08:10:21;5.30;;;3.10;;
10517;SDS011;5307;42.548;22.968;2022-08-01T08:12:49;4.22;;;2.75;;
10517;SDS011;5307;42.548;22.968;2022-08-01T08:15:16;4.32;;;2.70;;
10517;SDS011;5307;42.548;22.968;2022-08-01T08:17:43;2.70;;;2.50;;
10517;SDS011;5307;42.548;22.968;2022-08-01T08:20:10;3.05;;;2.75;;
10517;SDS011;5307;42.548;22.968;2022-08-01T08:22:37;2.72;;;2.30;;
10517;SDS011;5307;42.548;22.968;2022-08-01T08:25:05;4.57;;;2.50;;
10517;SDS011;5307;42.548;22.968;2022-08-01T08:27:32;2.50;;;2.30;;
10517;SDS011;5307;42.548;22.968;2022-08-01T08:30:02;4.75;;;2.70;;
10517;SDS011;5307;42.548;22.968;2022-08-01T08:32:31;2.42;;;1.92;;
10517;SDS011;5307;42.548;22.968;2022-08-01T08:34:58;4.85;;;2.50;;
10517;SDS011;5307;42.548;22.968;2022-08-01T08:37:25;4.03;;;2.67;;
10517;SDS011;5307;42.548;22.968;2022-08-01T08:39:51;4.43;;;2.80;;
10517;SDS011;5307;42.548;22.968;2022-08-01T08:42:18;2.65;;;2.40;;
10517;SDS011;5307;42.548;22.968;2022-08-01T08:44:45;2.88;;;2.67;;
10517;SDS011;5307;42.548;22.968;2022-08-01T08:47:13;3.30;;;2.40;;
10517;SDS011;5307;42.548;22.968;2022-08-01T08:49:41;4.38;;;2.38;;
10517;SDS011;5307;42.548;22.968;2022-08-01T08:52:10;2.42;;;2.20;;
10517;SDS011;5307;42.548;22.968;2022-08-01T08:54:37;2.90;;;2.58;;
10517;SDS011;5307;42.548;22.968;2022-08-01T08:57:05;4.70;;;2.67;;
10517;SDS011;5307;42.548;22.968;2022-08-01T08:59:32;4.50;;;2.60;;
10517;SDS011;5307;42.548;22.968;2022-08-01T09:01:58;3.00;;;2.17;;
10517;SDS011;5307;42.548;22.968;2022-08-01T09:04:28;5.00;;;2.50;;
10517;SDS011;5307;42.548;22.968;2022-08-01T09:06:55;3.63;;;2.42;;
10517;SDS011;5307;42.548;22.968;2022-08-01T09:09:21;5.10;;;2.92;;
10517;SDS011;5307;42.548;22.968;2022-08-01T09:11:49;4.50;;;2.38;;
10517;SDS011;5307;42.548;22.968;2022-08-01T09:14:16;3.22;;;2.15;;
10517;SDS011;5307;42.548;22.968;2022-08-01T09:16:58;2.60;;;2.40;;
10517;SDS011;5307;42.548;22.968;2022-08-01T09:19:35;2.78;;;2.40;;
10517;SDS011;5307;42.548;22.968;2022-08-01T09:22:04;2.70;;;2.17;;
10517;SDS011;5307;42.548;22.968;2022-08-01T09:24:32;4.20;;;2.28;;
10517;SDS011;5307;42.548;22.968;2022-08-01T09:27:01;6.28;;;2.53;;
10517;SDS011;5307;42.548;22.968;2022-08-01T09:29:40;4.95;;;2.30;;
10517;SDS011;5307;42.548;22.968;2022-08-01T09:32:09;5.28;;;2.70;;
10517;SDS011;5307;42.548;22.968;2022-08-01T09:34:38;2.47;;;2.28;;
10517;SDS011;5307;42.548;22.968;2022-08-01T09:37:04;3.35;;;3.03;;
10517;SDS011;5307;42.548;22.968;2022-08-01T09:39:32;4.53;;;2.70;;
10517;SDS011;5307;42.548;22.968;2022-08-01T09:42:02;9.95;;;4.93;;
10517;SDS011;5307;42.548;22.968;2022-08-01T09:44:45;3.83;;;2.78;;
10517;SDS011;5307;42.548;22.968;2022-08-01T09:47:12;3.30;;;2.45;;
10517;SDS011;5307;42.548;22.968;2022-08-01T09:49:41;4.32;;;2.63;;
10517;SDS011;5307;42.548;22.968;2022-08-01T09:52:11;2.67;;;2.47;;
10517;SDS011;5307;42.548;22.968;2022-08-01T09:54:39;3.97;;;2.70;;
10517;SDS011;5307;42.548;22.968;2022-08-01T09:57:08;2.80;;;2.60;;
10517;SDS011;5307;42.548;22.968;2022-08-01T09:59:37;4.32;;;2.63;;
10517;SDS011;5307;42.548;22.968;2022-08-01T10:02:07;6.28;;;2.80;;
10517;SDS011;5307;42.548;22.968;2022-08-01T10:04:36;4.32;;;2.60;;
10517;SDS011;5307;42.548;22.968;2022-08-01T10:07:05;8.95;;;2.72;;
10517;SDS011;5307;42.548;22.968;2022-08-01T10:09:33;3.70;;;2.50;;
10517;SDS011;5307;42.548;22.968;2022-08-01T10:12:02;3.78;;;2.50;;
10517;SDS011;5307;42.548;22.968;2022-08-01T10:14:30;5.60;;;2.60;;
10517;SDS011;5307;42.548;22.968;2022-08-01T10:16:58;2.30;;;2.10;;
10517;SDS011;5307;42.548;22.968;2022-08-01T10:19:27;4.28;;;2.35;;
10517;SDS011;5307;42.548;22.968;2022-08-01T10:21:56;5.07;;;2.40;;
10517;SDS011;5307;42.548;22.968;2022-08-01T10:24:26;4.32;;;2.10;;
10517;SDS011;5307;42.548;22.968;2022-08-01T10:26:55;6.32;;;2.30;;
10517;SDS011;5307;42.548;22.968;2022-08-01T10:29:28;2.65;;;2.45;;
10517;SDS011;5307;42.548;22.968;2022-08-01T10:32:00;5.57;;;2.33;;
10517;SDS011;5307;42.548;22.968;2022-08-01T10:34:27;2.65;;;2.45;;
10517;SDS011;5307;42.548;22.968;2022-08-01T10:36:56;3.45;;;2.70;;
10517;SDS011;5307;42.548;22.968;2022-08-01T10:39:25;3.95;;;2.72;;
10517;SDS011;5307;42.548;22.968;2022-08-01T10:41:54;4.55;;;2.90;;
10517;SDS011;5307;42.548;22.968;2022-08-01T10:44:21;2.78;;;2.58;;
10517;SDS011;5307;42.548;22.968;2022-08-01T10:46:50;3.35;;;2.80;;
10517;SDS011;5307;42.548;22.968;2022-08-01T10:49:24;3.53;;;2.95;;
10517;SDS011;5307;42.548;22.968;2022-08-01T10:51:55;4.57;;;2.47;;
10517;SDS011;5307;42.548;22.968;2022-08-01T10:54:25;2.60;;;2.40;;
10517;SDS011;5307;42.548;22.968;2022-08-01T10:56:52;2.70;;;2.50;;
10517;SDS011;5307;42.548;22.968;2022-08-01T10:59:21;5.47;;;2.58;;
10517;SDS011;5307;42.548;22.968;2022-08-01T11:01:59;2.60;;;2.40;;
10517;SDS011;5307;42.548;22.968;2022-08-01T11:04:36;3.28;;;2.80;;
10517;SDS011;5307;42.548;22.968;2022-08-01T11:07:11;4.05;;;2.92;;
10517;SDS011;5307;42.548;22.968;2022-08-01T11:09:44;5.93;;;2.63;;
10517;SDS011;5307;42.548;22.968;2022-08-01T11:12:13;4.85;;;2.60;;
10517;SDS011;5307;42.548;22.968;2022-08-01T11:17:49;3.58;;;2.30;;
10517;SDS011;5307;42.548;22.968;2022-08-01T11:20:17;3.13;;;2.30;;
10517;SDS011;5307;42.548;22.968;2022-08-01T11:26:09;5.03;;;2.85;;
10517;SDS011;5307;42.548;22.968;2022-08-01T11:28:38;4.82;;;2.70;;
10517;SDS011;5307;42.548;22.968;2022-08-01T11:31:25;3.72;;;2.78;;
10517;SDS011;5307;42.548;22.968;2022-08-01T11:33:55;4.90;;;2.72;;
10517;SDS011;5307;42.548;22.968;2022-08-01T11:36:23;3.30;;;2.90;;
10517;SDS011;5307;42.548;22.968;2022-08-01T11:41:40;4.25;;;3.22;;
10517;SDS011;5307;42.548;22.968;2022-08-01T11:44:07;4.82;;;3.10;;
10517;SDS011;5307;42.548;22.968;2022-08-01T11:46:45;3.88;;;3.08;;
10517;SDS011;5307;42.548;22.968;2022-08-01T11:49:45;3.78;;;3.50;;
10517;SDS011;5307;42.548;22.968;2022-08-01T11:52:16;9.57;;;3.40;;
10517;SDS011;5307;42.548;22.968;2022-08-01T11:54:45;3.17;;;2.95;;
10517;SDS011;5307;42.548;22.968;2022-08-01T11:57:17;4.63;;;3.50;;
10517;SDS011;5307;42.548;22.968;2022-08-01T11:59:46;7.97;;;4.15;;
10517;SDS011;5307;42.548;22.968;2022-08-01T12:02:21;3.83;;;3.42;;
10517;SDS011;5307;42.548;22.968;2022-08-01T12:04:49;4.07;;;3.47;;
10517;SDS011;5307;42.548;22.968;2022-08-01T12:07:18;3.70;;;3.05;;
10517;SDS011;5307;42.548;22.968;2022-08-01T12:09:46;4.10;;;3.80;;
10517;SDS011;5307;42.548;22.968;2022-08-01T12:12:18;3.92;;;3.63;;
10517;SDS011;5307;42.548;22.968;2022-08-01T12:14:45;5.28;;;4.28;;
10517;SDS011;5307;42.548;22.968;2022-08-01T12:17:20;4.45;;;3.67;;
10517;SDS011;5307;42.548;22.968;2022-08-01T12:19:53;4.57;;;3.90;;
10517;SDS011;5307;42.548;22.968;2022-08-01T12:22:22;4.68;;;3.72;;
10517;SDS011;5307;42.548;22.968;2022-08-01T12:24:50;4.70;;;3.72;;
10517;SDS011;5307;42.548;22.968;2022-08-01T12:27:25;4.18;;;3.78;;
10517;SDS011;5307;42.548;22.968;2022-08-01T12:29:53;6.38;;;3.72;;
10517;SDS011;5307;42.548;22.968;2022-08-01T12:32:21;9.48;;;3.75;;
10517;SDS011;5307;42.548;22.968;2022-08-01T12:34:50;4.75;;;3.80;;
10517;SDS011;5307;42.548;22.968;2022-08-01T12:37:17;7.53;;;3.70;;
10517;SDS011;5307;42.548;22.968;2022-08-01T12:39:44;4.85;;;3.67;;
10517;SDS011;5307;42.548;22.968;2022-08-01T12:42:12;5.35;;;3.72;;
10517;SDS011;5307;42.548;22.968;2022-08-01T12:44:41;6.05;;;3.55;;
10517;SDS011;5307;42.548;22.968;2022-08-01T12:47:10;3.80;;;3.40;;
10517;SDS011;5307;42.548;22.968;2022-08-01T12:49:40;7.32;;;3.22;;
10517;SDS011;5307;42.548;22.968;2022-08-01T12:52:09;3.72;;;2.78;;
10517;SDS011;5307;42.548;22.968;2022-08-01T12:57:29;8.00;;;3.10;;
10517;SDS011;5307;42.548;22.968;2022-08-01T13:00:11;4.65;;;2.80;;
10517;SDS011;5307;42.548;22.968;2022-08-01T13:02:40;3.20;;;2.60;;
10517;SDS011;5307;42.548;22.968;2022-08-01T13:05:08;4.68;;;3.00;;
10517;SDS011;5307;42.548;22.968;2022-08-01T13:07:44;3.10;;;2.80;;
10517;SDS011;5307;42.548;22.968;2022-08-01T13:10:13;3.17;;;2.88;;
10517;SDS011;5307;42.548;22.968;2022-08-01T13:12:50;4.57;;;3.10;;
10517;SDS011;5307;42.548;22.968;2022-08-01T13:15:21;6.10;;;3.15;;
10517;SDS011;5307;42.548;22.968;2022-08-01T13:17:50;2.42;;;2.20;;
10517;SDS011;5307;42.548;22.968;2022-08-01T13:20:21;8.93;;;3.28;;
10517;SDS011;5307;42.548;22.968;2022-08-01T13:22:49;3.10;;;2.80;;
10517;SDS011;5307;42.548;22.968;2022-08-01T13:25:16;3.60;;;2.83;;
10517;SDS011;5307;42.548;22.968;2022-08-01T13:27:43;5.20;;;2.60;;
10517;SDS011;5307;42.548;22.968;2022-08-01T13:30:11;3.40;;;2.42;;
10517;SDS011;5307;42.548;22.968;2022-08-01T13:32:41;4.10;;;2.78;;
10517;SDS011;5307;42.548;22.968;2022-08-01T13:35:11;4.30;;;2.28;;
10517;SDS011;5307;42.548;22.968;2022-08-01T13:37:39;3.25;;;2.78;;
10517;SDS011;5307;42.548;22.968;2022-08-01T13:40:08;2.70;;;2.38;;
10517;SDS011;5307;42.548;22.968;2022-08-01T13:42:37;4.03;;;2.40;;
10517;SDS011;5307;42.548;22.968;2022-08-01T13:45:05;2.70;;;2.50;;
10517;SDS011;5307;42.548;22.968;2022-08-01T13:47:35;6.18;;;2.70;;
10517;SDS011;5307;42.548;22.968;2022-08-01T13:50:04;2.67;;;2.47;;
10517;SDS011;5307;42.548;22.968;2022-08-01T13:52:31;4.13;;;2.67;;
10517;SDS011;5307;42.548;22.968;2022-08-01T13:54:58;2.30;;;1.85;;
10517;SDS011;5307;42.548;22.968;2022-08-01T13:57:26;1.83;;;1.73;;
10517;SDS011;5307;42.548;22.968;2022-08-01T13:59:53;2.42;;;2.22;;
10517;SDS011;5307;42.548;22.968;2022-08-01T14:02:20;2.67;;;2.10;;
10517;SDS011;5307;42.548;22.968;2022-08-01T14:04:47;3.75;;;2.30;;
10517;SDS011;5307;42.548;22.968;2022-08-01T14:07:15;5.20;;;1.92;;
10517;SDS011;5307;42.548;22.968;2022-08-01T14:09:42;2.45;;;2.25;;
10517;SDS011;5307;42.548;22.968;2022-08-01T14:12:09;3.90;;;2.35;;
10517;SDS011;5307;42.548;22.968;2022-08-01T14:14:36;2.67;;;2.47;;
10517;SDS011;5307;42.548;22.968;2022-08-01T14:17:03;5.38;;;2.10;;
10517;SDS011;5307;42.548;22.968;2022-08-01T14:19:30;4.40;;;2.30;;
10517;SDS011;5307;42.548;22.968;2022-08-01T14:21:57;3.00;;;2.25;;
10517;SDS011;5307;42.548;22.968;2022-08-01T14:24:25;3.00;;;2.00;;
10517;SDS011;5307;42.548;22.968;2022-08-01T14:26:52;2.30;;;2.10;;
10517;SDS011;5307;42.548;22.968;2022-08-01T14:29:19;2.30;;;1.80;;
10517;SDS011;5307;42.548;22.968;2022-08-01T14:31:46;2.92;;;2.20;;
10517;SDS011;5307;42.548;22.968;2022-08-01T14:34:13;3.42;;;1.98;;
10517;SDS011;5307;42.548;22.968;2022-08-01T14:36:40;2.50;;;2.30;;
10517;SDS011;5307;42.548;22.968;2022-08-01T14:39:07;3.88;;;2.08;;
10517;SDS011;5307;42.548;22.968;2022-08-01T14:41:35;4.22;;;2.45;;
10517;SDS011;5307;42.548;22.968;2022-08-01T14:44:02;2.05;;;1.83;;
10517;SDS011;5307;42.548;22.968;2022-08-01T14:46:29;1.85;;;1.70;;
10517;SDS011;5307;42.548;22.968;2022-08-01T14:48:56;4.60;;;2.13;;
10517;SDS011;5307;42.548;22.968;2022-08-01T14:51:23;6.90;;;2.10;;
10517;SDS011;5307;42.548;22.968;2022-08-01T14:53:50;1.88;;;1.77;;
10517;SDS011;5307;42.548;22.968;2022-08-01T14:56:18;3.97;;;1.90;;
10517;SDS011;5307;42.548;22.968;2022-08-01T15:04:29;6.35;;;1.80;;
10517;SDS011;5307;42.548;22.968;2022-08-01T15:06:56;3.63;;;1.90;;
10517;SDS011;5307;42.548;22.968;2022-08-01T15:09:23;2.85;;;2.00;;
10517;SDS011;5307;42.548;22.968;2022-08-01T15:11:50;2.40;;;1.90;;